DW9615 Home Hill AU current weather conditions

sailwx.info

Wind from 047 at 2 knots gusting 8

Air temperature 18.9° C
Dewpoint 10.2° C

Last reported at 2016-Aug-27 07:51 UTC.
Time now 2016-Aug-27 08:15 UTC

Location: S 19°40' E 147°25'.
View on Google Maps.

See reports from other nearby stations

  
Tides and Currents Weather Stations Pressure Air Temp Water Temp Dewpoint Dewpoint Depression Visibility Wind Speed Wind Dir Waves Ship Positions
date/time (UTC)wind fromknots sea level pressurealtimeterstation pressurevisibilityair tempwater tempwave heightnotes
2016-Aug-27 07:51 047 2 gusting 8 18.9
2016-Aug-27 07:36 041 3 gusting 8 19.4
2016-Aug-27 07:21 081 4 gusting 10 20.0
2016-Aug-27 07:07 066 5 gusting 10 20.6
2016-Aug-27 06:51 045 6 gusting 9 21.1
2016-Aug-27 06:36 058 3 gusting 9 21.1
2016-Aug-27 06:21 070 5 gusting 9 21.7
2016-Aug-27 06:06 050 6 gusting 10 21.7
2016-Aug-27 05:51 092 3 gusting 8 22.2
2016-Aug-27 05:36 066 3 gusting 8 22.2
2016-Aug-27 05:22 071 6 gusting 10 22.2
2016-Aug-27 05:06 072 6 gusting 10 22.8
2016-Aug-27 04:51 029 5 gusting 10 22.8
2016-Aug-27 04:36 136 6 gusting 12 22.8
2016-Aug-27 04:21 069 6 gusting 11 23.3
2016-Aug-27 04:06 073 1 gusting 7 23.3
2016-Aug-27 03:51 125 3 gusting 9 23.3
2016-Aug-27 03:35 062 1 gusting 7 23.3
2016-Aug-27 03:20 310 1 gusting 5 23.3
2016-Aug-27 03:05 126 1 gusting 6 23.3
2016-Aug-27 02:50 092 0 gusting 6 22.8
2016-Aug-27 02:36 044 0 gusting 6 22.2
2016-Aug-27 02:20 151 4 gusting 8 22.2
2016-Aug-27 02:05 165 2 gusting 6 22.2
2016-Aug-27 01:50 083 21.7
2016-Aug-27 01:35 037 2 gusting 6 21.7
2016-Aug-27 01:20 039 2 gusting 7 21.7
2016-Aug-27 01:05 135 3 gusting 9 21.1
2016-Aug-27 00:51 056 4 gusting 9 20.6
2016-Aug-27 00:35 156 3 gusting 7 21.1
2016-Aug-27 00:20 082 2 gusting 8 21.1
2016-Aug-27 00:05 130 3 gusting 11 20.6
2016-Aug-26 23:50 127 2 gusting 7 20.0
2016-Aug-26 23:35 154 3 gusting 8 19.4
2016-Aug-26 23:20 155 3 gusting 8 19.4
2016-Aug-26 23:05 175 1 gusting 7 18.9
2016-Aug-26 22:50 160 2 gusting 4 18.3
2016-Aug-26 22:35 152 2 gusting 6 17.2
2016-Aug-26 22:20 154 3 gusting 6 16.1
2016-Aug-26 22:04 153 15.6
2016-Aug-26 21:49 175 14.4
2016-Aug-26 21:34 156 0 gusting 3 13.3
2016-Aug-26 21:19 154 12.2
2016-Aug-26 21:04 154 11.1
2016-Aug-26 20:49 154 10.6
2016-Aug-26 20:34 154 10.0
2016-Aug-26 20:19 154 10.6
2016-Aug-26 20:04 154 11.1
2016-Aug-26 19:49 154 11.7
2016-Aug-26 19:34 170 2 gusting 5 12.2
2016-Aug-26 19:19 165 1 gusting 4 12.2
2016-Aug-26 19:04 165 1 gusting 4 11.7
2016-Aug-26 18:49 102 10.6
2016-Aug-26 18:34 102 11.1
2016-Aug-26 18:19 102 11.1
2016-Aug-26 18:04 102 11.7
2016-Aug-26 17:49 102 11.7
2016-Aug-26 17:34 102 11.7
2016-Aug-26 17:19 109 11.7
2016-Aug-26 17:04 110 0 gusting 2 11.7
2016-Aug-26 16:49 175 12.2
2016-Aug-26 16:34 175 12.2
2016-Aug-26 16:19 170 12.2
2016-Aug-26 16:04 165 12.8
2016-Aug-26 15:49 165 12.8
2016-Aug-26 15:33 165 13.3
2016-Aug-26 15:19 165 13.3
2016-Aug-26 15:04 157 12.8
2016-Aug-26 14:48 157 13.3
2016-Aug-26 14:33 157 13.3
2016-Aug-26 14:18 157 13.3
2016-Aug-26 14:03 157 13.9
2016-Aug-26 13:48 157 14.4
2016-Aug-26 13:33 157 15.0
2016-Aug-26 13:18 157 15.0
2016-Aug-26 13:03 159 15.6
2016-Aug-26 12:48 165 15.6
2016-Aug-26 12:33 179 0 gusting 4 16.1
2016-Aug-26 12:18 152 1 gusting 4 16.1
2016-Aug-26 12:03 165 1 gusting 3 16.1
2016-Aug-26 11:48 165 1 gusting 3 16.7
2016-Aug-26 11:33 131 0 gusting 4 17.2
2016-Aug-26 11:18 170 0 gusting 3 17.2
2016-Aug-26 11:03 170 1 gusting 5 17.8
2016-Aug-26 10:48 155 16.7
2016-Aug-26 10:33 155 17.2
2016-Aug-26 10:18 161 0 gusting 4 18.3
2016-Aug-26 10:03 165 1 gusting 3 18.3
2016-Aug-26 09:48 156 0 gusting 3 18.3
2016-Aug-26 09:33 160 1 gusting 3 18.3
2016-Aug-26 09:18 160 0 gusting 3 18.3
2016-Aug-26 09:03 142 1 gusting 3 18.3
2016-Aug-26 08:48 154 1 gusting 5 19.4
2016-Aug-26 08:33 151 1 gusting 5 20.0
2016-Aug-26 08:18 143 2 gusting 5 20.6
2016-Aug-26 08:03 158 1 gusting 4 21.1
2016-Aug-26 07:48 146 3 gusting 8 22.2
2016-Aug-26 07:33 165 1 gusting 6 22.8
2016-Aug-26 07:18 189 0 gusting 4 23.3
2016-Aug-26 07:03 170 0 gusting 5 23.9
2016-Aug-26 06:48 156 2 gusting 8 23.9
2016-Aug-26 06:33 156 1 gusting 9 24.4
2016-Aug-26 06:18 170 2 gusting 11 24.4
2016-Aug-26 06:03 255 0 gusting 6 25.0
2016-Aug-26 05:48 175 0 gusting 8 25.6
2016-Aug-26 05:33 229 2 gusting 7 25.6
2016-Aug-26 05:18 249 0 gusting 11 25.6
2016-Aug-26 05:03 154 2 gusting 7 25.6
2016-Aug-26 04:48 165 2 gusting 6 25.6
2016-Aug-26 04:33 152 2 gusting 7 25.6
2016-Aug-26 04:18 136 3 gusting 9 25.0
2016-Aug-26 04:03 179 2 gusting 7 25.6
2016-Aug-26 03:48 230 2 gusting 11 25.0
2016-Aug-26 03:33 112 2 gusting 11 24.4
2016-Aug-26 03:17 151 3 gusting 8 25.0
2016-Aug-26 03:03 180 0 gusting 8 25.0
2016-Aug-26 02:47 170 2 gusting 10 24.4
2016-Aug-26 02:32 133 2 gusting 8 23.9
2016-Aug-26 02:17 194 3 gusting 10 23.9
2016-Aug-26 02:02 270 2 gusting 12 23.9
2016-Aug-26 01:47 165 0 gusting 9 22.8
2016-Aug-26 01:32 237 1 gusting 10 23.3
2016-Aug-26 01:17 175 1 gusting 10 23.3
2016-Aug-26 01:02 221 1 gusting 8 22.8
2016-Aug-26 00:47 304 1 gusting 5 22.8
2016-Aug-26 00:32 237 1 gusting 5 22.2
2016-Aug-26 00:17 251 0 gusting 7 21.7
2016-Aug-26 00:02 199 0 gusting 5 20.6
2016-Aug-25 23:47 347 0 gusting 8 20.0
2016-Aug-25 23:32 202 1 gusting 7 19.4
2016-Aug-25 23:17 146 0 gusting 4 18.9
2016-Aug-25 23:02 208 0 gusting 3 18.3
2016-Aug-25 22:47 214 17.8
2016-Aug-25 22:32 150 17.8
2016-Aug-25 22:17 233 0 gusting 3 17.8
2016-Aug-25 22:02 170 16.7
2016-Aug-25 21:47 133 16.1
2016-Aug-25 21:32 133 16.1
2016-Aug-25 21:17 125 15.6
2016-Aug-25 21:02 124 15.6
2016-Aug-25 20:47 124 15.6
2016-Aug-25 20:32 156 15.6
2016-Aug-25 20:16 185 0 gusting 2 15.6
2016-Aug-25 20:02 260 15.6
2016-Aug-25 19:46 260 15.6
2016-Aug-25 19:32 165 16.1
2016-Aug-25 19:16 274 0 gusting 6 16.7
2016-Aug-25 19:01 175 18.9
2016-Aug-25 18:46 165 18.9
2016-Aug-25 18:31 165 0 gusting 4 18.9
2016-Aug-25 18:16 165 0 gusting 3 18.9
2016-Aug-25 18:01 165 1 gusting 3 18.9
2016-Aug-25 17:46 165 0 gusting 3 19.4
2016-Aug-25 17:31 165 1 gusting 5 19.4
2016-Aug-25 17:16 146 1 gusting 3 19.4
2016-Aug-25 17:01 145 19.4
2016-Aug-25 16:46 145 0 gusting 2 19.4
2016-Aug-25 16:31 145 0 gusting 1 19.4
2016-Aug-25 16:16 145 0 gusting 4 20.0
2016-Aug-25 16:01 153 1 gusting 3 20.0
2016-Aug-25 15:46 154 0 gusting 4 20.0
2016-Aug-25 15:31 154 1 gusting 4 20.0
2016-Aug-25 15:16 123 1 gusting 3 20.6
2016-Aug-25 15:01 109 1 gusting 3 20.6
2016-Aug-25 14:46 062 20.0
2016-Aug-25 14:31 061 20.0
2016-Aug-25 14:16 061 20.6
2016-Aug-25 14:01 061 20.6
2016-Aug-25 13:46 061 20.6
2016-Aug-25 13:31 061 20.6
2016-Aug-25 13:16 061 0 gusting 2 20.6
2016-Aug-25 13:01 062 20.6
2016-Aug-25 12:46 062 20.6
2016-Aug-25 12:31 062 21.1
2016-Aug-25 12:16 060 0 gusting 4 21.1
2016-Aug-25 12:02 058 1 gusting 4 21.1
2016-Aug-25 11:46 055 2 gusting 4 21.1
2016-Aug-25 11:31 071 1 gusting 5 21.1
2016-Aug-25 11:16 062 1 gusting 4 21.1
2016-Aug-25 11:01 068 1 gusting 5 21.1
2016-Aug-25 10:46 077 21.1
2016-Aug-25 10:31 077 0 gusting 2 21.1
2016-Aug-25 10:15 077 0 gusting 2 21.1
2016-Aug-25 10:01 077 0 gusting 2 21.1
2016-Aug-25 09:46 078 0 gusting 2 21.1
2016-Aug-25 09:30 080 0 gusting 2 21.1
2016-Aug-25 09:15 081 0 gusting 4 21.7
2016-Aug-25 09:00 071 1 gusting 6 21.7
2016-Aug-25 08:45 067 1 gusting 4 21.7
2016-Aug-25 08:30 060 3 gusting 6 21.7
2016-Aug-25 08:15 075 3 gusting 6 21.7
2016-Aug-25 08:00 080 3 gusting 7 21.7